Hauptseite
METAR-TAF:

METAR-TAF

Flughäfen :

Schwäbisch Hall, Deutschland

Flugplatz Schwäbisch Hall-Hessental (Adolf Würth Airport)

Breite: 49-07-06N, Länge: 9-47-02E, Höhe: 398 m

Beobachtung

Neuester Wetterbericht von vor 37 Minuten, um 05:20 UTC
Wind 9 kt aus West
Temperatur 9°C
Luftfeuchtigkeit 81%
Luftdruck 1017 hPa
Sichtweite 10 km oder mehr
Leicht bewölkt in der Höhe von 2200 ft
Geschlossene Wolkendecke in der Höhe von 7700 ft

METAR: EDTY 260520Z 26009KT 9999 FEW022 OVC077 09/06 Q1017

Zeit: 07:57 (05:57 UTC)

Prognose

Neuester Wetterbericht von vor 57 Minuten, um 05:00 UTC
Gültige Prognose vom 26 um 06 UTC bis 26 um 15 UTC
Wind 10 kt aus West/Südwest, Böen bis zu 25 kt
Sichtweite 10 km oder mehr
Aufgelockert bewölkt in der Höhe von 4000 ft

TAF: EDTY 260500Z 2606/2615 25010G25KT 9999 SCT040

Wetterbeobachtungen und Prognosen von mehr als 4000 Flughäfen (METAR und TAF Bericht).

Die verfügbaren Stationen werden durch gelbe und rote Markierungen auf der Karte dargestellt.

Führen Sie die Maus auf sie, um den Namen der Station zu sehen.

Darauf klicken, um die Beobachtung von Wetterbeobachtungen und Prognosen zu sehen.

Um die Karte zu ändern : klicken Sie auf den grünen Tasten mit einem schwarzen Kreuz Zum Vergrößern, auf den grünen Button mit einem Gedankenstrich zu verkleinern, oder auf die grünen Pfeile für benachbarte Karten.


METAR-TAF: